Aérodrome :
LOGIN :

S'inscrire | Disclaimer

   EN    FR    IT 

 










Légende :    VFR   VFR Marginal   IFR   IFR Intensif   IFR Très Intensif
Visi : 
Plafond : 
>= 8 km
>= 3000ft
5 à 8 km
1000 à 3000 ft
1500m à 5 km
500 à 1000 ft
800 à 1500m
200 à 500 ft
< 800m
< 200 ft
Symboles :   Orages  Brouillard  Fortes neiges  Fortes précipitations  Vent > 20 kt
SIGMETs :   Divers  Orages  Givrage  Turbulence  Onde Orograph.  Cendres Volcan.






- Altitude de l'aérodrome : 121 ft
- Code IATA : HUY


EGNJ - Humberside

DERNIER METAR :
  • 270550Z AUTO VRB03KT 9999 NCD 12/08 Q1036

METARs EXPIRÉS :
  • 270520Z AUTO VRB01KT 9999 NCD 10/07 Q1036
  • 270450Z AUTO 00000KT 9999 NCD 10/07 Q1036
  • 270420Z AUTO 23004KT 9999 NCD 09/07 Q1036
  • 270350Z AUTO 22003KT 9999 NCD 09/07 Q1036
  • 270320Z AUTO 20005KT 9999 NCD 09/07 Q1036

TAF TAF EGNJ
Valide du 27 à 03h jusqu'au 27 à 12h UTC


270158Z 2703/2712 26004KT 9999 FEW040
PROB30
TEMPO 2703/2707 8000
BECMG 2709/2712 03010KT
ATIS : +44 1652 682 020



MET'MAP, la Météo Aéronautique d'un coup d'oeil ! - Copyright ORBIFLY Décembre 2007 - Disclaimer

ORBIFLY MET'MAP TEAM :

Programmation & Développement : Alexandra Zaïnal
Sur une idée originale de : Baudouin d'Aumeries
Assistance à la programmation : Marc-Olivier Méhu
Soutien technique & logistique : Manuel Goepfert

Contact : metmap@orbifly.com




SOURCES & CREDITS :

   NOAA